Time;durP1;ratioP1;P1;durP2;ratioP2;P2;SDS_P1;SDS_P2;PMS_P1;PMS_P2;Temp;Humidity;BMP_temperature;BMP_pressure;BME280_temperature;BME280_humidity;BME280_pressure;Samples;Min_cycle;Max_cycle;Signal;HPM_P1;HPM_P2
2021/09/19 00:01:16;;;;;;;2.05;1.85;;;;;;;22.75;50.54;98841.86;1762101;80;21553;-65
2021/09/19 00:03:42;;;;;;;3.72;2.00;;;;;;;22.75;50.57;98837.80;1754421;80;21062;-65
2021/09/19 00:06:10;;;;;;;2.62;2.08;;;;;;;22.74;50.55;98850.53;1756599;80;22008;-65
2021/09/19 00:08:36;;;;;;;1.67;1.57;;;;;;;22.76;50.50;98844.86;1765801;80;21009;-64
2021/09/19 00:11:03;;;;;;;2.45;2.00;;;;;;;22.76;50.48;98848.37;1756617;80;21033;-65
2021/09/19 00:13:29;;;;;;;2.10;2.00;;;;;;;22.74;50.43;98841.61;1760713;80;22184;-65
2021/09/19 00:15:57;;;;;;;1.92;1.75;;;;;;;22.74;50.41;98844.31;1751250;80;21070;-65
2021/09/19 00:18:25;;;;;;;2.40;2.10;;;;;;;22.72;50.43;98842.42;1765187;80;21002;-64
2021/09/19 00:20:54;;;;;;;2.50;2.12;;;;;;;22.73;50.41;98844.83;1760130;79;21038;-64
2021/09/19 00:23:20;;;;;;;3.80;2.08;;;;;;;22.73;50.34;98842.67;1763453;80;21046;-64
2021/09/19 00:25:49;;;;;;;1.67;1.57;;;;;;;22.71;50.36;98838.07;1761490;79;21301;-65
2021/09/19 00:28:15;;;;;;;2.12;1.70;;;;;;;22.70;50.48;98840.52;1760571;80;21244;-65
2021/09/19 00:30:43;;;;;;;2.17;2.05;;;;;;;22.68;50.52;98830.51;1763474;80;21014;-66
2021/09/19 00:33:10;;;;;;;2.20;1.90;;;;;;;22.69;50.52;98838.89;1765675;80;21005;-65
2021/09/19 00:35:38;;;;;;;2.35;2.05;;;;;;;22.70;50.48;98833.76;1763976;79;21967;-64
2021/09/19 00:38:04;;;;;;;2.30;2.10;;;;;;;22.70;50.54;98837.27;1779892;78;21124;-65
2021/09/19 00:40:31;;;;;;;2.20;1.70;;;;;;;22.70;50.50;98837.81;1800745;78;21089;-66
2021/09/19 00:42:57;;;;;;;2.30;2.10;;;;;;;22.69;50.46;98841.59;1808348;78;20973;-65
2021/09/19 00:45:24;;;;;;;2.25;1.80;;;;;;;22.70;50.50;98845.39;1788216;78;21036;-64
2021/09/19 00:47:51;;;;;;;2.55;1.98;;;;;;;22.70;50.46;98845.94;1782030;79;21053;-65
2021/09/19 00:50:22;;;;;;;2.08;1.92;;;;;;;22.70;50.38;98852.16;1775138;79;21089;-65
2021/09/19 00:52:49;;;;;;;2.00;1.82;;;;;;;22.68;50.32;98848.91;1783147;79;21086;-64
2021/09/19 00:55:16;;;;;;;1.90;1.80;;;;;;;22.68;50.36;98848.91;1782657;79;21006;-64
2021/09/19 00:57:45;;;;;;;2.40;1.85;;;;;;;22.67;50.31;98847.27;1784482;79;21096;-64
2021/09/19 01:00:18;;;;;;;1.90;1.80;;;;;;;22.67;50.26;98852.69;1775133;79;21041;-64
2021/09/19 01:02:44;;;;;;;2.65;1.82;;;;;;;22.67;50.25;98851.33;1778441;79;21538;-63
2021/09/19 01:05:13;;;;;;;2.15;1.95;;;;;;;22.67;50.25;98854.03;1773406;79;23277;-65
2021/09/19 01:07:40;;;;;;;1.98;1.70;;;;;;;22.67;50.13;98849.98;1780548;79;20998;-64
2021/09/19 01:10:10;;;;;;;2.00;1.90;;;;;;;22.66;50.16;98848.92;1766111;79;21485;-65
2021/09/19 01:12:41;;;;;;;2.42;2.00;;;;;;;22.66;50.14;98852.98;1786045;79;21042;-65
2021/09/19 01:15:10;;;;;;;2.22;2.02;;;;;;;22.65;50.11;98851.34;1779160;79;21045;-65
2021/09/19 01:17:41;;;;;;;2.05;1.90;;;;;;;22.65;50.10;98855.40;1769610;79;21061;-64
2021/09/19 01:20:13;;;;;;;1.72;1.62;;;;;;;22.64;50.12;98857.30;1779901;79;21592;-64
2021/09/19 01:22:43;;;;;;;2.08;1.85;;;;;;;22.64;50.07;98854.59;1774597;79;21033;-65
2021/09/19 01:25:14;;;;;;;1.87;1.65;;;;;;;22.65;49.98;98856.20;1779071;79;21065;-64
2021/09/19 01:27:44;;;;;;;2.60;2.20;;;;;;;22.65;50.04;98860.81;1784741;79;20990;-64
2021/09/19 01:30:12;;;;;;;1.82;1.65;;;;;;;22.65;50.08;98857.55;1764077;79;21219;-64
2021/09/19 01:32:40;;;;;;;3.17;1.82;;;;;;;22.65;50.08;98855.40;1784701;79;21025;-64
2021/09/19 01:35:10;;;;;;;2.15;1.90;;;;;;;22.66;50.07;98848.92;1770983;79;21553;-65
2021/09/19 01:37:38;;;;;;;2.62;2.00;;;;;;;22.66;50.07;98850.27;1777592;79;21565;-63
2021/09/19 01:40:07;;;;;;;3.10;2.05;;;;;;;22.65;50.02;98848.63;1778525;79;21049;-65
2021/09/19 01:42:35;;;;;;;2.12;1.92;;;;;;;22.64;50.10;98851.05;1783190;79;21141;-65
2021/09/19 01:45:04;;;;;;;2.00;1.90;;;;;;;22.64;50.17;98851.05;1779499;79;21124;-64
2021/09/19 01:47:30;;;;;;;2.15;1.95;;;;;;;22.63;50.22;98848.09;1776625;79;21509;-64
2021/09/19 01:49:58;;;;;;;2.20;1.90;;;;;;;22.62;50.16;98847.28;1785587;78;21508;-64
2021/09/19 01:52:28;;;;;;;2.12;2.02;;;;;;;22.62;50.16;98843.74;1784037;79;20993;-64
2021/09/19 01:54:58;;;;;;;1.80;1.70;;;;;;;22.61;50.18;98842.94;1770430;80;21096;-63
2021/09/19 01:57:27;;;;;;;3.02;1.80;;;;;;;22.61;50.16;98836.72;1775695;80;21038;-65
2021/09/19 01:59:55;;;;;;;3.58;2.05;;;;;;;22.61;50.17;98835.37;1776339;79;21096;-63
2021/09/19 02:02:21;;;;;;;2.05;1.70;;;;;;;22.60;50.17;98832.38;1783972;79;21018;-64
2021/09/19 02:04:52;;;;;;;1.82;1.72;;;;;;;22.61;50.23;98836.72;1780561;79;21005;-64
2021/09/19 02:07:19;;;;;;;2.80;1.90;;;;;;;22.61;50.23;98841.58;1777446;79;21141;-66
2021/09/19 02:09:46;;;;;;;1.77;1.67;;;;;;;22.61;50.22;98839.42;1776447;79;21645;-65
2021/09/19 02:12:14;;;;;;;2.02;1.82;;;;;;;22.62;50.22;98839.69;1781235;80;21038;-65
2021/09/19 02:14:43;;;;;;;2.17;2.00;;;;;;;22.62;50.21;98847.80;1782210;79;21057;-65
2021/09/19 02:17:11;;;;;;;2.08;1.98;;;;;;;22.62;50.19;98843.22;1774739;79;21026;-64
2021/09/19 02:19:40;;;;;;;2.25;1.95;;;;;;;22.62;50.21;98838.33;1773264;79;21041;-64
2021/09/19 02:22:10;;;;;;;2.40;1.75;;;;;;;22.63;50.26;98831.84;1773134;79;21036;-64
2021/09/19 02:24:39;;;;;;;2.00;1.80;;;;;;;22.63;50.22;98833.20;1774742;79;20994;-64
2021/09/19 02:27:07;;;;;;;1.80;1.70;;;;;;;22.62;50.15;98834.27;1773277;79;21018;-64
2021/09/19 02:29:36;;;;;;;1.85;1.75;;;;;;;22.63;50.13;98831.84;1780567;79;21045;-64
2021/09/19 02:32:05;;;;;;;1.85;1.75;;;;;;;22.63;50.10;98834.00;1761035;79;21154;-63
2021/09/19 02:34:32;;;;;;;1.75;1.50;;;;;;;22.63;50.09;98836.72;1775558;79;21120;-63
2021/09/19 02:37:00;;;;;;;1.70;1.60;;;;;;;22.63;50.06;98833.20;1781009;79;21092;-64
2021/09/19 02:39:27;;;;;;;2.52;1.60;;;;;;;22.63;49.96;98835.91;1772099;79;21034;-64
2021/09/19 02:41:55;;;;;;;2.80;2.00;;;;;;;22.63;49.97;98839.42;1780348;80;21029;-63
2021/09/19 02:44:22;;;;;;;1.72;1.60;;;;;;;22.63;49.98;98834.55;1766568;79;21409;-64
2021/09/19 02:46:48;;;;;;;2.12;1.60;;;;;;;22.63;49.85;98834.55;1763889;79;21612;-64
2021/09/19 02:49:17;;;;;;;1.70;1.60;;;;;;;22.62;49.84;98833.75;1770360;80;21553;-64
2021/09/19 02:51:44;;;;;;;1.70;1.60;;;;;;;22.62;49.88;98837.81;1774021;79;21052;-63
2021/09/19 02:54:11;;;;;;;2.50;1.60;;;;;;;22.61;49.91;98840.23;1774387;79;21037;-64
2021/09/19 02:56:39;;;;;;;1.87;1.77;;;;;;;22.61;49.91;98838.88;1767440;79;21162;-64
2021/09/19 02:59:08;;;;;;;1.70;1.60;;;;;;;22.61;49.91;98836.17;1766573;79;20983;-63
2021/09/19 03:01:36;;;;;;;1.65;1.55;;;;;;;22.61;49.94;98834.02;1760431;79;21662;-65
2021/09/19 03:04:03;;;;;;;2.17;1.87;;;;;;;22.59;49.93;98826.16;1773288;79;21021;-64
2021/09/19 03:06:30;;;;;;;1.70;1.60;;;;;;;22.59;49.94;98828.86;1770765;79;21590;-64
2021/09/19 03:08:57;;;;;;;2.85;1.92;;;;;;;22.60;50.02;98824.25;1765827;79;21273;-64
2021/09/19 03:11:24;;;;;;;1.60;1.50;;;;;;;22.58;49.94;98821.30;1745548;79;21632;-63
2021/09/19 03:13:53;;;;;;;1.98;1.60;;;;;;;22.58;49.94;98827.25;1762093;79;21006;-63
2021/09/19 03:16:20;;;;;;;2.37;1.85;;;;;;;22.58;49.93;98827.25;1768988;79;21117;-63
2021/09/19 03:18:49;;;;;;;2.12;1.92;;;;;;;22.57;50.14;98822.91;1761277;80;21014;-64
2021/09/19 03:21:15;;;;;;;1.65;1.55;;;;;;;22.56;50.13;98822.10;1765645;79;22354;-64
2021/09/19 03:23:42;;;;;;;3.27;2.12;;;;;;;22.57;50.09;98829.13;1764460;79;21037;-65
2021/09/19 03:26:09;;;;;;;1.70;1.60;;;;;;;22.57;50.05;98830.48;1771385;79;21079;-64
2021/09/19 03:28:37;;;;;;;1.60;1.40;;;;;;;22.58;50.17;98829.41;1774501;79;21108;-64
2021/09/19 03:31:03;;;;;;;1.60;1.50;;;;;;;22.58;50.24;98834.83;1777995;80;21621;-64
2021/09/19 03:33:31;;;;;;;1.62;1.52;;;;;;;22.58;50.14;98831.31;1770292;79;21029;-64
2021/09/19 03:35:57;;;;;;;3.50;1.57;;;;;;;22.58;50.11;98838.08;1767849;79;21077;-64
2021/09/19 03:38:25;;;;;;;2.35;1.67;;;;;;;22.58;50.07;98830.77;1779636;79;21084;-65
2021/09/19 03:40:52;;;;;;;1.70;1.60;;;;;;;22.58;50.01;98835.37;1768305;80;21037;-65
2021/09/19 03:43:18;;;;;;;1.98;1.70;;;;;;;22.57;50.02;98833.19;1755905;80;21499;-65
2021/09/19 03:45:46;;;;;;;2.75;2.40;;;;;;;22.57;50.01;98830.48;1767856;80;21814;-65
2021/09/19 03:48:15;;;;;;;2.83;1.95;;;;;;;22.57;50.03;98834.54;1748619;80;21091;-64
2021/09/19 03:50:42;;;;;;;2.17;1.87;;;;;;;22.57;50.06;98831.03;1778516;78;21316;-63
2021/09/19 03:53:09;;;;;;;1.85;1.70;;;;;;;22.56;50.12;98835.64;1781012;78;22058;-64
2021/09/19 03:55:35;;;;;;;3.27;2.10;;;;;;;22.56;50.17;98833.45;1776784;79;21064;-63
2021/09/19 03:58:03;;;;;;;2.27;2.08;;;;;;;22.57;50.24;98832.38;1788365;78;21592;-63
2021/09/19 04:00:31;;;;;;;2.52;1.82;;;;;;;22.58;50.12;98828.61;1776890;78;21603;-64
2021/09/19 04:02:58;;;;;;;1.95;1.57;;;;;;;22.58;50.11;98834.83;1791499;78;21049;-63
2021/09/19 04:05:24;;;;;;;3.02;1.65;;;;;;;22.58;50.11;98836.18;1786352;80;21083;-63
2021/09/19 04:07:51;;;;;;;3.27;2.00;;;;;;;22.59;50.05;98839.69;1760267;79;21099;-64
2021/09/19 04:10:17;;;;;;;3.62;2.08;;;;;;;22.59;50.04;98841.05;1764953;80;23307;-64
2021/09/19 04:12:44;;;;;;;3.45;1.90;;;;;;;22.61;50.05;98840.78;1790959;78;21084;-64
2021/09/19 04:15:12;;;;;;;2.12;1.77;;;;;;;22.60;50.05;98837.79;1786756;78;21545;-64
2021/09/19 04:17:40;;;;;;;4.70;4.08;;;;;;;22.60;50.05;98841.33;1774999;79;21038;-63
2021/09/19 04:20:10;;;;;;;3.35;2.83;;;;;;;22.61;50.05;98839.42;1771818;79;21032;-65
2021/09/19 04:22:38;;;;;;;2.83;2.37;;;;;;;22.60;50.04;98833.21;1772559;79;21010;-64
2021/09/19 04:25:07;;;;;;;2.52;2.33;;;;;;;22.58;50.06;98834.83;1762911;80;21037;-64
2021/09/19 04:27:36;;;;;;;2.87;2.62;;;;;;;22.60;50.11;98835.91;1769610;79;21127;-66
2021/09/19 04:30:04;;;;;;;2.67;2.47;;;;;;;22.61;50.08;98840.78;1781513;79;21029;-64
2021/09/19 04:32:31;;;;;;;4.10;2.25;;;;;;;22.61;50.05;98840.23;1760702;79;21058;-64
2021/09/19 04:34:58;;;;;;;3.08;2.55;;;;;;;22.61;50.06;98840.23;1777625;79;21157;-64
2021/09/19 04:37:27;;;;;;;3.08;2.67;;;;;;;22.61;49.98;98844.84;1767643;79;21565;-64
2021/09/19 04:39:54;;;;;;;2.40;2.20;;;;;;;22.61;49.91;98840.23;1778060;79;21513;-64
2021/09/19 04:42:22;;;;;;;2.80;2.52;;;;;;;22.63;49.92;98842.67;1770471;80;21109;-65
2021/09/19 04:44:49;;;;;;;2.52;2.33;;;;;;;22.63;49.90;98838.62;1770585;79;21006;-64
2021/09/19 04:47:16;;;;;;;2.98;2.05;;;;;;;22.63;49.91;98833.20;1772612;80;21719;-64
2021/09/19 04:49:44;;;;;;;2.55;2.30;;;;;;;22.62;49.91;98836.45;1765886;79;21006;-64
2021/09/19 04:54:10;;;;;;;2.92;2.42;;;;;;;22.67;49.90;98833.73;1886095;75;23176;-66
2021/09/19 04:56:37;;;;;;;2.83;2.60;;;;;;;22.63;49.90;98837.27;1844158;77;21017;-65
2021/09/19 04:59:04;;;;;;;2.67;2.47;;;;;;;22.63;49.98;98830.50;1817629;78;21131;-65
2021/09/19 05:01:31;;;;;;;2.83;2.52;;;;;;;22.63;49.98;98830.50;1814728;77;20969;-65
2021/09/19 05:03:57;;;;;;;3.25;2.30;;;;;;;22.63;49.97;98827.23;1821779;77;21564;-63
2021/09/19 05:06:24;;;;;;;2.80;2.50;;;;;;;22.64;49.92;98830.75;1817206;77;20961;-64
2021/09/19 05:08:50;;;;;;;2.75;2.20;;;;;;;22.63;49.91;98832.66;1824736;77;20982;-64
2021/09/19 05:11:17;;;;;;;3.35;2.25;;;;;;;22.64;49.95;98834.81;1822341;77;21917;-65
2021/09/19 05:13:44;;;;;;;2.52;2.30;;;;;;;22.63;49.98;98827.79;1818914;77;20883;-64
2021/09/19 05:16:12;;;;;;;4.08;2.77;;;;;;;22.65;49.98;98833.74;1821594;77;21553;-64
2021/09/19 05:18:38;;;;;;;2.58;2.30;;;;;;;22.66;49.92;98839.44;1821117;77;21049;-63
2021/09/19 05:21:05;;;;;;;2.65;2.45;;;;;;;22.66;49.85;98832.67;1818111;77;21041;-64
2021/09/19 05:23:31;;;;;;;2.87;2.50;;;;;;;22.66;49.84;98830.77;1824297;77;21071;-64
2021/09/19 05:25:59;;;;;;;3.67;2.10;;;;;;;22.67;49.85;98831.58;1812546;77;22241;-63
2021/09/19 05:28:25;;;;;;;2.50;2.30;;;;;;;22.68;49.90;98834.02;1818901;77;21470;-64
2021/09/19 05:30:52;;;;;;;2.60;2.40;;;;;;;22.68;49.95;98837.28;1817145;77;21046;-65
2021/09/19 05:33:19;;;;;;;4.83;3.05;;;;;;;22.67;49.90;98841.86;1824206;77;21056;-64
2021/09/19 05:35:46;;;;;;;3.00;2.42;;;;;;;22.69;49.87;98838.89;1817648;77;21119;-65
2021/09/19 05:38:12;;;;;;;3.52;2.47;;;;;;;22.69;49.84;98841.59;1822299;77;21033;-64
2021/09/19 05:40:41;;;;;;;2.60;2.37;;;;;;;22.70;49.76;98840.52;1822664;77;20982;-65
2021/09/19 05:43:07;;;;;;;2.95;2.42;;;;;;;22.70;49.60;98837.81;1816483;77;21092;-65
2021/09/19 05:45:34;;;;;;;2.52;2.33;;;;;;;22.70;49.44;98835.91;1823103;77;21592;-64
2021/09/19 05:48:00;;;;;;;3.85;2.50;;;;;;;22.71;49.39;98828.05;1818999;77;21116;-63
2021/09/19 05:50:27;;;;;;;3.55;2.37;;;;;;;22.71;49.35;98836.17;1817877;77;21009;-65
2021/09/19 05:52:53;;;;;;;3.55;2.42;;;;;;;22.73;49.28;98834.00;1817448;77;21087;-64
2021/09/19 05:55:20;;;;;;;2.85;2.40;;;;;;;22.72;49.24;98831.59;1820261;76;21019;-65
2021/09/19 05:57:48;;;;;;;3.33;2.20;;;;;;;22.73;49.22;98833.20;1831159;77;21076;-65
2021/09/19 06:00:15;;;;;;;3.80;3.17;;;;;;;22.73;49.19;98827.78;1828097;76;21033;-64
2021/09/19 06:02:43;;;;;;;4.78;2.30;;;;;;;22.73;49.37;98825.08;1826545;77;21066;-64
2021/09/19 06:05:10;;;;;;;2.83;2.42;;;;;;;22.73;49.65;98825.88;1821686;77;21035;-64
2021/09/19 06:07:37;;;;;;;2.67;2.47;;;;;;;22.75;49.72;98829.68;1819463;77;21001;-64
2021/09/19 06:10:05;;;;;;;2.37;2.17;;;;;;;22.76;49.80;98836.19;1826648;77;21060;-64
2021/09/19 06:12:33;;;;;;;3.35;2.40;;;;;;;22.78;49.76;98830.50;1835729;77;21061;-64
2021/09/19 06:15:02;;;;;;;4.78;2.72;;;;;;;22.82;49.60;98826.72;1832740;77;21066;-66
2021/09/19 06:17:29;;;;;;;2.98;2.58;;;;;;;22.84;49.50;98828.61;1828025;77;21505;-64
2021/09/19 06:19:55;;;;;;;2.98;2.35;;;;;;;22.85;49.39;98824.28;1827519;77;21110;-64
2021/09/19 06:22:21;;;;;;;3.98;2.47;;;;;;;22.88;49.26;98827.79;1825157;77;21083;-64
2021/09/19 06:24:48;;;;;;;3.15;2.50;;;;;;;22.89;49.20;98819.11;1821197;77;21584;-64
2021/09/19 06:27:16;;;;;;;2.87;2.42;;;;;;;22.91;49.09;98827.81;1791530;79;21021;-63
2021/09/19 06:29:43;;;;;;;4.97;3.98;;;;;;;22.92;49.02;98822.09;1774159;80;21013;-65
2021/09/19 06:32:10;;;;;;;3.27;2.98;;;;;;;22.92;48.89;98831.58;1761428;80;21033;-65
2021/09/19 06:34:39;;;;;;;3.37;2.50;;;;;;;22.94;48.88;98823.19;1759689;80;21647;-64
2021/09/19 06:37:05;;;;;;;2.80;2.45;;;;;;;22.95;49.11;98824.83;1757774;80;21145;-65
2021/09/19 06:39:32;;;;;;;3.02;2.50;;;;;;;22.96;49.33;98824.53;1754155;80;21652;-64
2021/09/19 06:42:00;;;;;;;2.98;2.67;;;;;;;22.97;49.41;98824.81;1760643;79;21018;-64
2021/09/19 06:44:28;;;;;;;3.72;2.95;;;;;;;22.99;49.44;98827.80;1761912;79;21037;-65
2021/09/19 06:46:56;;;;;;;3.62;2.65;;;;;;;22.99;49.45;98828.61;1769897;80;21474;-65
2021/09/19 06:49:26;;;;;;;4.72;2.17;;;;;;;23.01;49.47;98818.86;1767575;79;21126;-65
2021/09/19 06:51:54;;;;;;;2.55;2.35;;;;;;;23.03;49.32;98820.78;1782206;79;21045;-67
2021/09/19 06:54:20;;;;;;;26.40;18.65;;;;;;;23.03;49.25;98819.44;1766885;79;21533;-66
2021/09/19 06:56:48;;;;;;;7.78;4.87;;;;;;;23.03;49.42;98814.02;1771729;79;21064;-64
2021/09/19 06:59:15;;;;;;;5.75;3.30;;;;;;;23.04;49.72;98816.98;1771374;79;21054;-65
2021/09/19 07:01:42;;;;;;;6.90;3.62;;;;;;;23.03;49.82;98814.02;1774528;79;21101;-64
2021/09/19 07:04:10;;;;;;;4.80;3.08;;;;;;;23.02;49.94;98811.80;1758379;79;21122;-66
2021/09/19 07:06:38;;;;;;;4.67;3.02;;;;;;;23.03;50.01;98819.44;1767148;79;21005;-64
2021/09/19 07:09:06;;;;;;;6.10;2.72;;;;;;;23.01;50.06;98818.31;1761730;79;21097;-63
2021/09/19 07:11:34;;;;;;;7.20;3.25;;;;;;;23.01;50.05;98819.67;1762181;79;21001;-64
2021/09/19 07:14:03;;;;;;;4.22;3.10;;;;;;;23.01;50.00;98816.95;1775314;79;21053;-65
2021/09/19 07:16:31;;;;;;;3.65;2.72;;;;;;;23.00;50.00;98811.80;1765939;79;21054;-64
2021/09/19 07:18:59;;;;;;;5.42;2.70;;;;;;;23.00;49.95;98811.80;1772156;79;22022;-63
2021/09/19 07:21:27;;;;;;;5.47;2.83;;;;;;;23.01;49.97;98814.80;1759626;79;21037;-63
2021/09/19 07:23:53;;;;;;;6.05;3.58;;;;;;;23.01;49.94;98813.45;1761065;79;21072;-63
2021/09/19 07:26:20;;;;;;;3.27;2.72;;;;;;;23.01;49.90;98814.25;1765455;79;22867;-64
2021/09/19 07:28:47;;;;;;;3.37;2.55;;;;;;;23.01;49.84;98813.45;1766082;79;21013;-63
2021/09/19 07:31:14;;;;;;;3.75;2.58;;;;;;;23.00;49.81;98809.91;1760986;79;21077;-66
2021/09/19 07:33:41;;;;;;;15.10;6.40;;;;;;;23.01;49.82;98813.45;1764102;79;20998;-65
2021/09/19 07:36:09;;;;;;;21.40;10.15;;;;;;;23.00;49.71;98815.88;1764613;79;21108;-62
2021/09/19 07:38:36;;;;;;;19.57;9.08;;;;;;;23.00;49.79;98811.80;1763075;80;21161;-62
2021/09/19 07:41:03;;;;;;;13.28;7.00;;;;;;;23.03;50.21;98811.30;1757487;79;21157;-62
2021/09/19 07:43:30;;;;;;;13.15;5.85;;;;;;;23.08;50.11;98816.17;1755990;79;21568;-66
2021/09/19 07:45:57;;;;;;;11.55;5.30;;;;;;;23.13;49.86;98815.34;1758626;79;21037;-63
2021/09/19 07:48:25;;;;;;;7.87;5.05;;;;;;;23.15;49.75;98822.11;1761939;79;21097;-63
2021/09/19 07:50:53;;;;;;;11.90;5.20;;;;;;;23.18;49.80;98811.28;1755680;79;21605;-66
2021/09/19 07:53:20;;;;;;;7.80;4.30;;;;;;;23.22;49.87;98815.59;1756058;80;21692;-62
2021/09/19 07:55:46;;;;;;;8.95;4.65;;;;;;;23.26;49.71;98813.98;1757961;79;21097;-61
2021/09/19 07:58:13;;;;;;;8.80;4.40;;;;;;;23.30;49.73;98817.77;1770811;79;21091;-60
2021/09/19 08:00:39;;;;;;;6.85;3.80;;;;;;;23.34;49.59;98810.16;1780751;79;21096;-62
2021/09/19 08:03:06;;;;;;;4.92;3.12;;;;;;;23.39;49.33;98810.67;1758535;80;22377;-62
2021/09/19 08:05:32;;;;;;;5.08;2.85;;;;;;;23.41;48.83;98806.34;1758032;79;21090;-65
2021/09/19 08:07:58;;;;;;;6.33;3.12;;;;;;;23.39;48.23;98808.52;1779690;79;21474;-64
2021/09/19 08:10:25;;;;;;;5.67;2.87;;;;;;;23.34;48.07;98812.06;1772136;79;21148;-63
2021/09/19 08:12:52;;;;;;;6.47;3.85;;;;;;;23.27;47.99;98815.59;1779247;79;21049;-61
2021/09/19 08:15:20;;;;;;;5.50;3.47;;;;;;;23.19;48.27;98819.67;1777733;79;21006;-61
2021/09/19 08:17:47;;;;;;;5.50;3.58;;;;;;;23.14;48.74;98811.53;1779917;79;21026;-63
2021/09/19 08:20:15;;;;;;;6.97;3.27;;;;;;;23.12;49.02;98816.42;1770027;79;21572;-61
2021/09/19 08:22:42;;;;;;;4.90;3.10;;;;;;;23.09;49.19;98806.95;1760492;80;21038;-63
2021/09/19 08:25:10;;;;;;;8.03;3.65;;;;;;;23.09;49.26;98808.86;1767209;79;22039;-60
2021/09/19 08:27:37;;;;;;;7.00;3.35;;;;;;;23.09;49.26;98806.95;1766167;79;21321;-61
2021/09/19 08:30:07;;;;;;;6.05;3.30;;;;;;;23.08;49.26;98803.98;1772553;79;21438;-64
2021/09/19 08:32:33;;;;;;;4.33;2.70;;;;;;;23.08;49.22;98806.70;1782973;79;21293;-61
2021/09/19 08:35:00;;;;;;;7.50;3.02;;;;;;;23.08;49.26;98805.34;1781673;79;21029;-64
2021/09/19 08:37:26;;;;;;;5.50;2.67;;;;;;;23.06;49.29;98800.71;1772427;79;21036;-66
2021/09/19 08:39:53;;;;;;;17.55;6.90;;;;;;;23.07;49.54;98798.84;1776291;79;21944;-64
2021/09/19 08:42:21;;;;;;;16.37;6.58;;;;;;;23.08;50.03;98801.80;1762995;79;21076;-65
2021/09/19 08:44:48;;;;;;;11.60;5.40;;;;;;;23.10;50.57;98790.98;1765838;79;21020;-62
2021/09/19 08:47:14;;;;;;;9.10;4.50;;;;;;;23.12;50.64;98792.04;1791342;79;21065;-65
2021/09/19 08:49:44;;;;;;;8.75;3.62;;;;;;;23.14;50.56;98790.70;1777158;79;21045;-66
2021/09/19 08:52:11;;;;;;;4.92;2.95;;;;;;;23.17;50.43;98786.63;1775154;79;22793;-65
2021/09/19 08:54:39;;;;;;;6.58;3.55;;;;;;;23.20;50.37;98777.95;1774133;79;21097;-69
2021/09/19 08:57:05;;;;;;;6.55;3.80;;;;;;;23.22;50.30;98777.14;1774058;79;21060;-63
2021/09/19 08:59:51;;;;;;;5.08;2.90;;;;;;;23.25;50.21;98778.48;1783443;79;21567;-65
2021/09/19 09:02:18;;;;;;;5.85;3.40;;;;;;;23.26;50.10;98779.56;1781982;79;21030;-64
2021/09/19 09:04:45;;;;;;;4.90;3.02;;;;;;;23.28;50.05;98779.30;1777097;79;21139;-64
2021/09/19 09:07:13;;;;;;;5.45;3.15;;;;;;;23.29;49.99;98784.41;1766552;79;22173;-67
2021/09/19 09:09:56;;;;;;;4.83;3.50;;;;;;;23.31;49.94;98780.91;1764447;79;21074;-67
2021/09/19 09:12:25;;;;;;;6.30;3.08;;;;;;;23.24;49.86;98762.77;1751423;79;21026;-65
2021/09/19 09:14:55;;;;;;;5.05;3.52;;;;;;;23.33;49.80;98773.32;1769471;79;20998;-65
2021/09/19 09:17:27;;;;;;;5.75;3.65;;;;;;;23.32;49.87;98775.75;1769956;79;21027;-64
2021/09/19 09:19:59;;;;;;;6.67;4.15;;;;;;;23.33;50.04;98769.25;1769977;79;21081;-65
2021/09/19 09:22:31;;;;;;;6.05;3.65;;;;;;;23.35;50.41;98774.37;1751819;79;21038;-67
2021/09/19 09:25:16;;;;;;;5.05;3.35;;;;;;;23.34;50.57;98766.80;1756937;79;21486;-68
2021/09/19 09:27:47;;;;;;;7.40;3.25;;;;;;;23.38;50.62;98756.77;1758531;80;22036;-66
2021/09/19 09:30:18;;;;;;;7.05;3.50;;;;;;;23.45;50.88;98751.33;1766336;79;21073;-66
2021/09/19 09:32:55;;;;;;;8.05;3.60;;;;;;;23.53;50.88;98751.30;1751157;79;21053;-67
2021/09/19 09:35:27;;;;;;;6.70;3.60;;;;;;;23.60;50.82;98749.63;1759032;79;21030;-68
2021/09/19 09:37:54;;;;;;;4.87;3.30;;;;;;;23.68;50.71;98749.88;1755137;79;21116;-67
2021/09/19 09:40:25;;;;;;;6.55;3.25;;;;;;;23.76;50.67;98749.84;1754275;79;21029;-68
2021/09/19 09:43:13;;;;;;;3.83;2.85;;;;;;;23.84;50.44;98753.34;1761164;79;21060;-67
2021/09/19 09:45:41;;;;;;;6.05;3.05;;;;;;;23.92;50.35;98762.80;1753926;79;21081;-67
2021/09/19 09:48:38;;;;;;;6.62;2.80;;;;;;;23.99;50.19;98751.09;1767410;79;21600;-68
2021/09/19 09:51:01;;;;;;;6.33;2.77;;;;;;;24.07;49.94;98753.77;1758517;79;21076;-67
2021/09/19 09:53:28;;;;;;;5.72;2.95;;;;;;;24.13;49.75;98742.59;1759651;79;21071;-64
2021/09/19 09:55:58;;;;;;;4.25;3.30;;;;;;;24.21;49.59;98749.31;1784233;79;21160;-69
2021/09/19 09:58:25;;;;;;;8.28;3.85;;;;;;;24.26;49.50;98749.81;1750790;79;21045;-67
2021/09/19 10:00:54;;;;;;;7.22;2.90;;;;;;;24.30;49.44;98750.34;1781131;79;21093;-64
2021/09/19 10:03:21;;;;;;;4.80;2.87;;;;;;;24.35;49.31;98746.77;1775670;80;21044;-62
2021/09/19 10:05:47;;;;;;;4.62;3.10;;;;;;;24.38;49.42;98749.45;1787609;79;21068;-61
2021/09/19 10:08:14;;;;;;;5.05;3.15;;;;;;;24.41;49.50;98745.63;1792590;79;21067;-61
2021/09/19 10:10:43;;;;;;;7.28;3.50;;;;;;;24.44;49.37;98738.29;1778349;79;21072;-59
2021/09/19 10:13:14;;;;;;;5.83;3.62;;;;;;;24.46;49.42;98740.73;1771565;79;21541;-59
2021/09/19 10:15:42;;;;;;;3.50;3.20;;;;;;;24.48;49.19;98737.98;1797179;79;21029;-63
2021/09/19 10:18:11;;;;;;;4.55;3.50;;;;;;;24.49;49.00;98732.00;1787699;79;21119;-64
2021/09/19 10:20:40;;;;;;;4.08;3.67;;;;;;;24.50;48.80;98750.72;1775367;79;21143;-62
2021/09/19 10:23:17;;;;;;;5.97;4.22;;;;;;;24.51;48.68;98767.84;1770905;80;21166;-61
2021/09/19 10:25:53;;;;;;;3.60;3.30;;;;;;;24.48;48.58;98768.40;1745623;79;21076;-64
2021/09/19 10:28:28;;;;;;;3.98;3.47;;;;;;;24.41;48.58;98760.56;1773248;79;21006;-61
2021/09/19 10:31:12;;;;;;;4.58;3.25;;;;;;;24.38;48.61;98762.50;1775758;79;21005;-61
2021/09/19 10:33:44;;;;;;;6.65;5.90;;;;;;;24.38;48.62;98754.36;1777920;79;21149;-61
2021/09/19 10:36:35;;;;;;;5.12;4.62;;;;;;;24.38;48.65;98757.08;1778298;79;21074;-60
2021/09/19 10:39:30;;;;;;;4.05;3.75;;;;;;;24.39;48.60;98755.97;1733761;80;21120;-60
2021/09/19 10:42:10;;;;;;;4.20;3.80;;;;;;;24.35;48.38;98760.34;1763895;80;21041;-61
2021/09/19 10:44:48;;;;;;;4.10;3.45;;;;;;;24.30;48.24;98760.40;1776041;79;21018;-60
2021/09/19 10:47:35;;;;;;;3.50;3.20;;;;;;;24.24;48.34;98771.00;1778616;79;21149;-60
2021/09/19 10:50:34;;;;;;;3.05;2.85;;;;;;;24.20;47.66;98760.45;1763658;79;21046;-60
2021/09/19 10:53:18;;;;;;;3.27;2.95;;;;;;;24.13;47.78;98761.58;1781151;79;21065;-62
2021/09/19 10:56:00;;;;;;;2.90;2.60;;;;;;;24.01;47.92;98744.84;1770019;79;21185;-61
2021/09/19 10:58:36;;;;;;;3.90;2.65;;;;;;;24.06;47.62;98758.91;1775037;79;21494;-63
2021/09/19 11:01:19;;;;;;;2.70;2.27;;;;;;;23.99;47.44;98768.73;1767162;79;21117;-64
2021/09/19 11:04:01;;;;;;;;;;;;;;;23.93;47.44;98773.89;1772947;79;21097;-60
2021/09/19 11:06:38;;;;;;;2.05;1.85;;;;;;;23.87;47.59;98769.59;1767171;79;20174;-58
2021/09/19 11:09:24;;;;;;;8.93;8.00;;;;;;;23.80;47.48;98783.99;1775778;79;21049;-62
2021/09/19 11:12:14;;;;;;;4.03;3.72;;;;;;;23.68;47.44;98774.28;1774415;79;21036;-62
2021/09/19 11:15:03;;;;;;;2.65;2.42;;;;;;;23.60;47.64;98774.83;1769067;79;21148;-63
2021/09/19 11:17:33;;;;;;;2.10;1.90;;;;;;;23.58;47.68;98773.49;1778609;79;21076;-61
2021/09/19 11:20:24;;;;;;;2.37;2.17;;;;;;;23.53;47.63;98772.98;1791511;79;21016;-62
2021/09/19 11:22:53;;;;;;;2.40;1.90;;;;;;;23.52;47.68;98777.57;1767440;79;21045;-61
2021/09/19 11:25:21;;;;;;;2.02;1.92;;;;;;;23.48;47.59;98782.48;1784869;79;21552;-62
2021/09/19 11:27:51;;;;;;;1.80;1.70;;;;;;;23.44;47.71;98780.86;1780256;79;21149;-62
2021/09/19 11:30:21;;;;;;;1.90;1.80;;;;;;;23.42;47.65;98783.59;1768956;79;21071;-61
2021/09/19 11:32:47;;;;;;;1.90;1.80;;;;;;;23.40;47.48;98787.12;1766610;79;21020;-60
2021/09/19 11:35:15;;;;;;;2.55;2.35;;;;;;;23.37;47.47;98780.33;1786536;79;21088;-61
2021/09/19 11:37:43;;;;;;;2.40;2.20;;;;;;;23.35;47.63;98790.63;1759831;79;21647;-61
2021/09/19 11:40:22;;;;;;;2.37;2.00;;;;;;;23.37;47.64;98792.52;1771845;79;21029;-61
2021/09/19 11:42:50;;;;;;;2.12;1.95;;;;;;;23.39;47.63;98797.67;1780081;79;21108;-61
2021/09/19 11:45:16;;;;;;;1.70;1.60;;;;;;;23.39;47.39;98796.31;1771514;79;21045;-61